Time;durP1;ratioP1;P1;durP2;ratioP2;P2;SDS_P1;SDS_P2;PMS_P1;PMS_P2;Temp;Humidity;BMP_temperature;BMP_pressure;BME280_temperature;BME280_humidity;BME280_pressure;Samples;Min_cycle;Max_cycle;Signal;HPM_P1;HPM_P2
2023/01/12 00:00:58;;;;;;;19.63;3.60;;;7.50;99.90;;;;;;5023652;28;20403;-66
2023/01/12 00:03:23;;;;;;;16.38;3.00;;;7.40;99.90;;;;;;5042340;28;20040;-67
2023/01/12 00:05:49;;;;;;;30.65;4.20;;;7.50;99.90;;;;;;5030912;28;20463;-67
2023/01/12 00:08:15;;;;;;;23.88;3.67;;;7.50;99.90;;;;;;5006796;28;20061;-67
2023/01/12 00:10:41;;;;;;;29.90;3.97;;;7.50;99.90;;;;;;5011149;28;20041;-67
2023/01/12 00:13:07;;;;;;;26.50;4.20;;;7.50;99.90;;;;;;5009044;28;21053;-68
2023/01/12 00:16:33;;;;;;;26.98;4.22;;;7.50;99.90;;;;;;5026082;28;20048;-68
2023/01/12 00:18:19;;;;;;;26.27;4.10;;;7.60;99.90;;;;;;5024671;28;20102;-66
2023/01/12 00:20:48;;;;;;;27.85;4.30;;;7.70;99.90;;;;;;5025571;28;20044;-68
2023/01/12 00:23:14;;;;;;;21.67;4.03;;;7.60;99.90;;;;;;5024492;28;20041;-67
2023/01/12 00:25:40;;;;;;;23.38;3.88;;;7.70;99.90;;;;;;5008880;28;20542;-67
2023/01/12 00:28:06;;;;;;;25.88;4.40;;;7.70;99.90;;;;;;5024882;28;20139;-67
2023/01/12 00:30:32;;;;;;;24.15;4.30;;;7.70;99.90;;;;;;5026737;28;20513;-67
2023/01/12 00:32:57;;;;;;;21.98;3.92;;;7.70;99.90;;;;;;5025991;28;20047;-67
2023/01/12 00:35:23;;;;;;;32.60;4.68;;;7.80;99.90;;;;;;5041502;28;20139;-67
2023/01/12 00:37:49;;;;;;;30.88;4.63;;;7.80;99.90;;;;;;5039291;28;20055;-65
2023/01/12 00:40:15;;;;;;;25.38;4.40;;;7.80;99.90;;;;;;5029030;28;20085;-65
2023/01/12 00:45:26;;;;;;;24.67;3.97;;;7.80;99.90;;;;;;5014324;28;20172;-67
2023/01/12 00:47:52;;;;;;;21.75;4.18;;;7.70;99.90;;;;;;5044093;28;20041;-67
2023/01/12 00:50:18;;;;;;;26.35;4.30;;;7.80;99.90;;;;;;5010987;28;20590;-67
2023/01/12 00:52:44;;;;;;;30.20;4.82;;;7.80;99.90;;;;;;5027720;28;20057;-67
2023/01/12 00:55:09;;;;;;;27.77;4.70;;;7.80;99.90;;;;;;5004334;28;20106;-65
2023/01/12 00:57:35;;;;;;;25.08;4.22;;;7.80;99.90;;;;;;5043892;28;20522;-65
2023/01/12 01:00:01;;;;;;;26.52;4.93;;;7.80;99.90;;;;;;5024275;28;20049;-67
2023/01/12 01:02:28;;;;;;;25.58;4.38;;;7.70;99.90;;;;;;5043655;28;20049;-66
2023/01/12 01:04:54;;;;;;;22.98;4.00;;;7.80;99.90;;;;;;5026205;28;20076;-67
2023/01/12 01:07:23;;;;;;;22.15;4.60;;;7.80;99.90;;;;;;5026593;28;20100;-65
2023/01/12 01:09:49;;;;;;;26.83;4.85;;;7.80;99.90;;;;;;4969814;28;20136;-67
2023/01/12 01:12:15;;;;;;;29.67;4.20;;;7.80;99.90;;;;;;5024483;28;20127;-67
2023/01/12 01:14:41;;;;;;;27.73;4.68;;;7.80;99.90;;;;;;5036462;28;20163;-67
2023/01/12 01:17:07;;;;;;;29.05;4.25;;;7.80;99.90;;;;;;5020270;28;20045;-66
2023/01/12 01:19:33;;;;;;;34.33;5.22;;;7.80;99.90;;;;;;5005654;28;20052;-67
2023/01/12 01:21:59;;;;;;;30.17;4.20;;;7.80;99.90;;;;;;4999687;28;20324;-67
2023/01/12 01:24:25;;;;;;;25.58;4.03;;;7.90;99.90;;;;;;5043056;28;20037;-65
2023/01/12 01:26:50;;;;;;;24.83;3.92;;;7.80;99.90;;;;;;5042300;28;20122;-68
2023/01/12 01:29:16;;;;;;;23.05;3.65;;;7.90;99.90;;;;;;5017187;28;20080;-66
2023/01/12 01:31:42;;;;;;;17.52;3.10;;;7.80;99.90;;;;;;5022440;28;20045;-67
2023/01/12 01:34:08;;;;;;;17.40;3.72;;;7.80;99.90;;;;;;5038839;28;20060;-67
2023/01/12 01:36:34;;;;;;;22.83;4.30;;;7.80;99.90;;;;;;5019782;28;20832;-67
2023/01/12 01:39:00;;;;;;;20.95;3.88;;;7.80;99.90;;;;;;5012136;28;20114;-67
2023/01/12 01:41:30;;;;;;;25.50;4.18;;;7.90;99.90;;;;;;5022468;28;20095;-64
2023/01/12 01:44:23;;;;;;;23.75;4.28;;;7.80;99.90;;;;;;5027572;28;20049;-67
2023/01/12 01:46:53;;;;;;;29.48;4.38;;;7.80;99.90;;;;;;5025478;28;20052;-67
2023/01/12 01:49:41;;;;;;;28.98;4.20;;;7.80;99.90;;;;;;5044139;28;20045;-67
2023/01/12 01:52:11;;;;;;;28.10;3.63;;;7.80;99.90;;;;;;5025498;28;20106;-66
2023/01/12 01:54:43;;;;;;;27.23;4.20;;;7.80;99.90;;;;;;5028481;28;20053;-67
2023/01/12 01:57:11;;;;;;;32.90;5.43;;;7.80;99.90;;;;;;5026225;28;20049;-67
2023/01/12 01:59:39;;;;;;;22.33;3.90;;;7.80;99.90;;;;;;5025864;28;20080;-68
2023/01/12 02:02:05;;;;;;;26.80;4.90;;;7.90;99.90;;;;;;5043507;28;20049;-65
2023/01/12 02:04:32;;;;;;;31.48;4.22;;;7.90;99.90;;;;;;5044221;28;20041;-67
2023/01/12 02:07:00;;;;;;;24.42;4.70;;;7.80;99.90;;;;;;5045459;28;20041;-67
2023/01/12 02:09:28;;;;;;;25.60;4.03;;;7.80;99.90;;;;;;5037428;28;20091;-68
2023/01/12 02:17:46;;;;;;;27.58;4.28;;;7.80;99.90;;;;;;5020455;28;20466;-67
2023/01/12 02:20:32;;;;;;;23.00;3.50;;;7.80;99.90;;;;;;5009606;28;20721;-66
2023/01/12 02:23:50;;;;;;;22.17;4.60;;;7.90;99.90;;;;;;5038983;28;20104;-66
2023/01/12 02:26:28;;;;;;;26.60;4.35;;;7.90;99.90;;;;;;4957743;28;20057;-67
2023/01/12 02:29:06;;;;;;;34.95;4.40;;;7.90;99.90;;;;;;5038933;28;20060;-66
2023/01/12 02:31:55;;;;;;;30.27;3.72;;;7.90;99.90;;;;;;5022342;28;20559;-68
2023/01/12 02:34:47;;;;;;;24.65;6.03;;;7.90;99.90;;;;;;5022727;28;20057;-67
2023/01/12 02:38:02;;;;;;;32.72;5.10;;;7.90;99.90;;;;;;5018380;28;20186;-66
2023/01/12 02:40:48;;;;;;;32.20;4.70;;;7.90;99.90;;;;;;5000285;28;20056;-66
2023/01/12 02:43:23;;;;;;;24.73;4.70;;;7.90;99.90;;;;;;4991266;28;20071;-66
2023/01/12 02:46:10;;;;;;;31.00;5.88;;;7.90;99.90;;;;;;5020510;28;20087;-66
2023/01/12 02:48:57;;;;;;;30.40;5.38;;;7.90;99.90;;;;;;4991484;28;20048;-68
2023/01/12 02:51:30;;;;;;;30.30;4.50;;;8.00;99.90;;;;;;5035864;28;20048;-68
2023/01/12 02:54:07;;;;;;;36.08;5.38;;;8.00;99.90;;;;;;5037445;28;20048;-68
2023/01/12 02:56:55;;;;;;;25.65;3.70;;;8.00;99.90;;;;;;5022698;28;20517;-68
2023/01/12 02:59:23;;;;;;;25.23;4.45;;;8.00;99.90;;;;;;5020580;28;20039;-67
2023/01/12 03:01:51;;;;;;;24.77;4.53;;;8.00;99.90;;;;;;5023994;28;20053;-65
2023/01/12 03:04:18;;;;;;;39.22;5.63;;;8.00;99.90;;;;;;5023528;28;20049;-68
2023/01/12 03:07:13;;;;;;;25.90;4.65;;;8.00;99.90;;;;;;5025133;28;20041;-68
2023/01/12 03:09:39;;;;;;;30.08;4.80;;;8.00;99.90;;;;;;4976346;28;21022;-68
2023/01/12 03:12:11;;;;;;;28.25;5.75;;;8.00;99.90;;;;;;4992483;28;20107;-68
2023/01/12 03:14:40;;;;;;;36.25;5.72;;;8.00;99.90;;;;;;4994513;28;24148;-67
2023/01/12 03:17:13;;;;;;;33.60;5.63;;;8.00;99.90;;;;;;4995610;28;20049;-67
2023/01/12 03:19:40;;;;;;;36.38;6.13;;;8.00;99.90;;;;;;4999687;28;20042;-68
2023/01/12 03:22:10;;;;;;;29.08;5.30;;;8.00;99.90;;;;;;5000174;28;20053;-68
2023/01/12 03:24:40;;;;;;;39.60;6.05;;;8.10;99.90;;;;;;4998120;28;20046;-68
2023/01/12 03:27:15;;;;;;;39.33;7.18;;;8.10;99.90;;;;;;4992642;28;20050;-67
2023/01/12 03:29:49;;;;;;;28.77;6.97;;;8.00;99.90;;;;;;4996511;28;20042;-68
2023/01/12 03:32:15;;;;;;;31.83;5.78;;;8.10;99.90;;;;;;4993169;28;20182;-67
2023/01/12 03:34:41;;;;;;;29.05;5.60;;;8.10;99.90;;;;;;4993752;28;20053;-68
2023/01/12 03:37:29;;;;;;;33.60;6.13;;;8.20;99.90;;;;;;4977031;28;20046;-68
2023/01/12 03:40:25;;;;;;;31.77;6.15;;;8.10;99.90;;;;;;5008193;28;20068;-68
2023/01/12 03:42:57;;;;;;;29.70;5.55;;;8.20;99.90;;;;;;4995663;28;20412;-68
2023/01/12 03:45:38;;;;;;;22.15;5.10;;;8.20;99.90;;;;;;4993657;28;20508;-68
2023/01/12 03:48:30;;;;;;;27.33;4.70;;;8.20;99.90;;;;;;4996278;28;20034;-68
2023/01/12 03:51:18;;;;;;;26.88;4.85;;;8.30;99.90;;;;;;4996121;28;20539;-68
2023/01/12 03:53:48;;;;;;;27.40;5.00;;;8.30;99.90;;;;;;4994162;28;20038;-68
2023/01/12 03:56:18;;;;;;;25.67;4.30;;;8.30;99.90;;;;;;4992674;28;20050;-68
2023/01/12 03:58:44;;;;;;;23.45;3.72;;;8.30;99.90;;;;;;4986780;28;20063;-65
2023/01/12 04:01:10;;;;;;;21.27;4.30;;;8.30;99.90;;;;;;4975956;28;20977;-68
2023/01/12 04:03:36;;;;;;;21.73;4.30;;;8.30;99.90;;;;;;4996973;28;20050;-68
2023/01/12 04:06:02;;;;;;;22.02;4.05;;;8.30;99.90;;;;;;4991210;28;20041;-68
2023/01/12 04:08:28;;;;;;;22.85;3.78;;;8.30;99.90;;;;;;4999154;28;20042;-66
2023/01/12 04:10:53;;;;;;;23.98;4.53;;;8.30;99.90;;;;;;4999051;28;20046;-68
2023/01/12 04:13:19;;;;;;;29.98;4.28;;;8.30;99.90;;;;;;4998988;28;20050;-66
2023/01/12 04:15:46;;;;;;;22.90;3.88;;;8.40;99.90;;;;;;4994327;28;20056;-68
2023/01/12 04:18:12;;;;;;;20.05;3.88;;;8.40;99.90;;;;;;4997076;28;20695;-68
2023/01/12 04:20:39;;;;;;;22.45;4.30;;;8.30;99.90;;;;;;4992403;28;20096;-67
2023/01/12 04:23:06;;;;;;;24.00;4.13;;;8.40;99.90;;;;;;5010497;28;20049;-68
2023/01/12 04:25:32;;;;;;;25.17;4.97;;;8.40;99.90;;;;;;4998002;28;20104;-65
2023/01/12 04:28:02;;;;;;;27.63;6.10;;;8.40;99.90;;;;;;5014212;28;20084;-68
2023/01/12 04:30:30;;;;;;;25.98;5.72;;;8.50;99.90;;;;;;4980183;28;20046;-68
2023/01/12 04:32:57;;;;;;;32.58;7.15;;;8.50;99.90;;;;;;4997059;28;20045;-67
2023/01/12 04:35:24;;;;;;;29.48;5.38;;;8.40;99.90;;;;;;4997908;28;20056;-68
2023/01/12 04:37:51;;;;;;;20.17;4.20;;;8.50;99.90;;;;;;4974219;28;20116;-68
2023/01/12 04:40:17;;;;;;;16.00;3.28;;;8.50;99.90;;;;;;4993803;28;20057;-68
2023/01/12 04:43:00;;;;;;;11.18;2.70;;;8.50;99.90;;;;;;4996283;28;20038;-66
2023/01/12 04:45:26;;;;;;;;;;;8.50;99.90;;;;;;4992601;28;20054;-64
2023/01/12 04:47:52;;;;;;;14.75;2.83;;;8.40;99.90;;;;;;4996589;28;20008;-68
2023/01/12 04:50:18;;;;;;;10.68;3.13;;;8.40;99.90;;;;;;4998342;28;20117;-68
2023/01/12 04:52:44;;;;;;;11.98;2.30;;;8.40;99.90;;;;;;4999319;28;20049;-68
2023/01/12 04:55:10;;;;;;;8.70;2.38;;;8.40;99.90;;;;;;4983642;28;20085;-68
2023/01/12 04:57:36;;;;;;;10.60;2.80;;;8.40;99.90;;;;;;4997776;28;20818;-67
2023/01/12 05:00:04;;;;;;;12.35;4.78;;;8.40;99.90;;;;;;4993500;28;20053;-68
2023/01/12 05:02:30;;;;;;;12.30;3.42;;;8.40;99.90;;;;;;4982042;28;20049;-66
2023/01/12 05:04:55;;;;;;;7.15;2.03;;;8.40;99.90;;;;;;4982635;28;21976;-67
2023/01/12 05:07:21;;;;;;;10.52;2.33;;;8.40;99.90;;;;;;4983481;28;20049;-65
2023/01/12 05:12:32;;;;;;;9.73;2.00;;;8.30;99.90;;;;;;5038201;28;20049;-67
2023/01/12 05:14:58;;;;;;;7.82;2.30;;;8.30;99.90;;;;;;5018559;28;20066;-68
2023/01/12 05:17:23;;;;;;;11.65;1.75;;;8.30;99.90;;;;;;5037430;28;20044;-68
2023/01/12 05:19:49;;;;;;;4.97;1.52;;;8.30;99.90;;;;;;4993777;28;20049;-67
2023/01/12 05:22:15;;;;;;;6.18;2.05;;;8.40;99.90;;;;;;5039746;28;20045;-68
2023/01/12 05:24:41;;;;;;;9.10;1.92;;;8.40;99.90;;;;;;5009990;28;20033;-69
2023/01/12 05:27:07;;;;;;;8.40;1.80;;;8.40;99.90;;;;;;5026534;28;20037;-67
2023/01/12 05:29:32;;;;;;;7.65;1.83;;;8.40;99.90;;;;;;5043893;28;20045;-68
2023/01/12 05:31:58;;;;;;;5.78;1.77;;;8.30;99.90;;;;;;5027030;28;20051;-66
2023/01/12 05:34:24;;;;;;;6.72;1.70;;;8.30;99.90;;;;;;5005879;28;20049;-66
2023/01/12 05:36:50;;;;;;;4.57;1.40;;;8.30;99.90;;;;;;5007098;28;20053;-68
2023/01/12 05:39:15;;;;;;;7.18;1.90;;;8.30;99.90;;;;;;5000247;28;20183;-68
2023/01/12 05:43:48;;;;;;;4.72;1.55;;;8.30;99.90;;;;;;5041694;28;20041;-69
2023/01/12 05:44:27;;;;;;;4.65;2.00;;;8.30;99.90;;;;;;5024403;28;20487;-68
2023/01/12 05:46:53;;;;;;;6.72;1.80;;;8.30;99.90;;;;;;5004440;28;20051;-68
2023/01/12 05:49:19;;;;;;;5.88;1.40;;;8.30;99.90;;;;;;5012472;28;20511;-68
2023/01/12 05:51:45;;;;;;;8.48;1.80;;;8.30;99.90;;;;;;5018734;28;20048;-68
2023/01/12 05:54:10;;;;;;;3.08;1.30;;;8.30;99.90;;;;;;5038011;28;20491;-67
2023/01/12 05:56:36;;;;;;;5.72;1.60;;;8.30;99.90;;;;;;5001999;28;20057;-67
2023/01/12 05:59:03;;;;;;;5.82;1.80;;;8.30;99.90;;;;;;5017314;28;20057;-67
2023/01/12 06:01:30;;;;;;;4.50;1.50;;;8.30;99.90;;;;;;5021031;28;20085;-67
2023/01/12 06:03:58;;;;;;;5.45;1.50;;;8.30;99.90;;;;;;5025674;28;20403;-69
2023/01/12 06:06:26;;;;;;;3.17;1.10;;;8.30;99.90;;;;;;5027922;28;20072;-68
2023/01/12 06:08:52;;;;;;;3.20;1.17;;;8.40;99.90;;;;;;5023133;28;20056;-67
2023/01/12 06:14:03;;;;;;;2.47;1.30;;;8.40;99.90;;;;;;5022611;28;20041;-68
2023/01/12 06:16:29;;;;;;;4.40;1.80;;;8.40;99.90;;;;;;5024299;28;20140;-68
2023/01/12 06:18:55;;;;;;;7.78;3.10;;;8.40;99.90;;;;;;5002342;28;20192;-68
2023/01/12 06:21:22;;;;;;;3.15;1.80;;;8.40;99.90;;;;;;5028796;28;20388;-68
2023/01/12 06:23:48;;;;;;;3.53;1.63;;;8.40;99.90;;;;;;5023062;28;20047;-68
2023/01/12 06:26:14;;;;;;;3.78;2.17;;;8.40;99.90;;;;;;5022702;28;20045;-67
2023/01/12 06:28:41;;;;;;;7.78;3.00;;;8.40;99.90;;;;;;5040256;28;20045;-68
2023/01/12 06:31:10;;;;;;;5.72;2.40;;;8.50;99.90;;;;;;5018093;28;20051;-68
2023/01/12 06:33:36;;;;;;;4.32;1.70;;;8.50;99.90;;;;;;5035668;28;20044;-66
2023/01/12 06:36:03;;;;;;;2.60;1.80;;;8.50;99.90;;;;;;5016554;28;20119;-68
2023/01/12 06:38:30;;;;;;;3.53;1.35;;;8.50;99.90;;;;;;5021172;28;20955;-68
2023/01/12 06:42:27;;;;;;;2.42;1.20;;;8.50;99.90;;;;;;5021834;28;21059;-66
2023/01/12 06:43:54;;;;;;;2.22;1.20;;;8.50;99.90;;;;;;5019312;28;20047;-67
2023/01/12 06:46:21;;;;;;;4.18;1.10;;;8.60;99.90;;;;;;5022689;28;20122;-68
2023/01/12 06:48:46;;;;;;;4.15;1.35;;;8.60;99.90;;;;;;5016993;28;20040;-68
2023/01/12 06:51:12;;;;;;;2.83;1.00;;;8.60;99.90;;;;;;5019840;28;20094;-68
2023/01/12 06:53:38;;;;;;;2.42;1.13;;;8.60;99.90;;;;;;5015381;28;20052;-68
2023/01/12 06:56:04;;;;;;;2.13;1.00;;;8.70;99.90;;;;;;5004740;28;20100;-65
2023/01/12 06:58:30;;;;;;;4.47;1.30;;;8.70;99.90;;;;;;5007402;28;20430;-68
2023/01/12 07:01:03;;;;;;;1.77;1.20;;;8.70;99.90;;;;;;5006972;28;20053;-64
2023/01/12 07:03:29;;;;;;;3.53;1.75;;;8.80;99.90;;;;;;5011179;28;20458;-64
2023/01/12 07:05:59;;;;;;;6.03;1.65;;;8.80;99.90;;;;;;5022594;28;20064;-64
2023/01/12 07:08:24;;;;;;;6.68;2.05;;;8.90;99.90;;;;;;5022624;28;20067;-64
2023/01/12 07:10:50;;;;;;;10.02;2.80;;;8.90;99.90;;;;;;5007890;28;20049;-64
2023/01/12 07:13:16;;;;;;;9.93;2.72;;;8.90;99.90;;;;;;4986946;28;20088;-65
2023/01/12 07:15:42;;;;;;;14.23;3.25;;;9.00;99.90;;;;;;5018449;28;20037;-60
2023/01/12 07:18:08;;;;;;;11.05;3.65;;;9.10;99.90;;;;;;5045142;28;20044;-60
2023/01/12 07:20:34;;;;;;;11.98;3.55;;;9.10;99.90;;;;;;5017891;28;20282;-60
2023/01/12 07:23:00;;;;;;;15.98;3.50;;;9.10;99.90;;;;;;5047015;28;20056;-60
2023/01/12 07:25:26;;;;;;;14.15;3.08;;;9.20;99.90;;;;;;5044534;28;20098;-59
2023/01/12 07:27:54;;;;;;;14.25;3.03;;;9.20;99.90;;;;;;5046181;28;20435;-60
2023/01/12 07:30:20;;;;;;;20.55;3.30;;;9.30;99.90;;;;;;5044064;28;20056;-60
2023/01/12 07:32:47;;;;;;;18.42;3.42;;;9.40;99.90;;;;;;5044383;28;20112;-60
2023/01/12 07:35:13;;;;;;;19.00;3.50;;;9.40;99.90;;;;;;5027558;28;20048;-60
2023/01/12 07:37:45;;;;;;;21.10;3.60;;;9.40;99.90;;;;;;5046107;28;20130;-60
2023/01/12 07:40:11;;;;;;;20.17;3.22;;;9.50;99.90;;;;;;5027209;28;20553;-60
2023/01/12 07:42:37;;;;;;;24.75;4.13;;;9.50;99.90;;;;;;5045144;28;20502;-60
2023/01/12 07:45:03;;;;;;;22.63;4.10;;;9.60;99.90;;;;;;5026282;28;20037;-60
2023/01/12 07:47:29;;;;;;;22.70;4.43;;;9.70;99.90;;;;;;5044455;28;20415;-60
2023/01/12 07:49:55;;;;;;;22.08;3.95;;;9.70;99.90;;;;;;5046012;28;20044;-60
2023/01/12 07:52:21;;;;;;;20.50;4.10;;;9.80;99.90;;;;;;5046687;28;20063;-60
2023/01/12 07:54:46;;;;;;;22.02;4.38;;;9.80;99.90;;;;;;5027213;28;20045;-60
2023/01/12 07:57:12;;;;;;;24.17;3.83;;;9.80;99.90;;;;;;5045753;28;20037;-60
2023/01/12 07:59:38;;;;;;;22.60;4.32;;;9.90;99.90;;;;;;5027423;28;20045;-60
2023/01/12 08:02:05;;;;;;;23.25;4.20;;;9.90;99.90;;;;;;5027716;28;20045;-60
2023/01/12 08:04:31;;;;;;;22.50;3.53;;;10.00;99.90;;;;;;5027608;28;20052;-60
2023/01/12 08:06:57;;;;;;;28.40;4.15;;;10.00;99.90;;;;;;5026286;28;20040;-59
2023/01/12 08:09:23;;;;;;;23.48;4.45;;;10.10;99.90;;;;;;5026135;28;20144;-60
2023/01/12 08:11:49;;;;;;;30.05;4.32;;;10.10;99.90;;;;;;5009831;28;20052;-60
2023/01/12 08:14:26;;;;;;;30.10;4.90;;;10.10;99.90;;;;;;5016917;28;20049;-61
2023/01/12 08:16:55;;;;;;;26.40;3.83;;;10.10;99.90;;;;;;5003472;28;20052;-60
2023/01/12 08:19:25;;;;;;;26.27;3.85;;;10.10;99.90;;;;;;5026294;28;20376;-60
2023/01/12 08:21:57;;;;;;;24.40;4.53;;;10.20;99.90;;;;;;5044166;28;20045;-60
2023/01/12 08:24:33;;;;;;;28.07;4.27;;;10.20;99.90;;;;;;5026136;28;20049;-60
2023/01/12 08:27:03;;;;;;;21.42;3.80;;;10.20;99.90;;;;;;5027295;28;20475;-60
2023/01/12 08:29:38;;;;;;;24.60;3.67;;;10.20;99.90;;;;;;5041126;28;20041;-60
2023/01/12 08:32:05;;;;;;;14.57;3.00;;;10.30;99.90;;;;;;5023956;28;20056;-61
2023/01/12 08:34:37;;;;;;;17.92;3.55;;;10.30;99.90;;;;;;5024880;28;20055;-60
2023/01/12 08:37:06;;;;;;;25.65;4.25;;;10.40;99.90;;;;;;5043544;28;20048;-60
2023/01/12 08:39:34;;;;;;;22.58;3.90;;;10.40;99.90;;;;;;5043433;28;20048;-60
2023/01/12 08:42:00;;;;;;;24.95;3.60;;;10.40;99.90;;;;;;5026055;28;20049;-60
2023/01/12 08:44:32;;;;;;;27.65;4.30;;;10.30;99.90;;;;;;5044980;28;20045;-60
2023/01/12 08:46:57;;;;;;;24.60;3.85;;;10.40;99.90;;;;;;5028026;28;20041;-60
2023/01/12 08:49:26;;;;;;;21.40;4.18;;;10.40;99.90;;;;;;5043814;28;20087;-60
2023/01/12 08:51:52;;;;;;;15.13;2.97;;;10.40;99.90;;;;;;5041600;28;20071;-61
2023/01/12 08:54:19;;;;;;;23.10;3.72;;;10.40;99.90;;;;;;5024348;28;20056;-60
2023/01/12 08:56:46;;;;;;;24.13;4.03;;;10.40;99.90;;;;;;5042569;28;20098;-60
2023/01/12 08:59:12;;;;;;;25.10;4.03;;;10.50;99.90;;;;;;5046044;28;20049;-61
2023/01/12 09:01:38;;;;;;;25.02;3.70;;;10.50;99.90;;;;;;5046585;28;20044;-60
2023/01/12 09:04:04;;;;;;;18.85;3.05;;;10.50;99.90;;;;;;5013314;28;20044;-60
2023/01/12 09:06:36;;;;;;;24.63;3.88;;;10.50;99.90;;;;;;5044076;28;20037;-60
2023/01/12 09:09:05;;;;;;;21.27;3.70;;;10.50;99.90;;;;;;5012132;28;20088;-61
2023/01/12 09:11:31;;;;;;;24.80;3.65;;;10.50;99.90;;;;;;5045310;28;20060;-61
2023/01/12 09:13:58;;;;;;;19.48;3.08;;;10.50;99.90;;;;;;5047895;28;20394;-60
2023/01/12 09:16:26;;;;;;;17.08;3.20;;;10.50;99.90;;;;;;5045138;28;20057;-60
2023/01/12 09:18:52;;;;;;;22.50;3.50;;;10.50;99.90;;;;;;5045518;28;20132;-61
2023/01/12 09:21:20;;;;;;;22.90;3.55;;;10.50;99.90;;;;;;5025146;28;20053;-60
2023/01/12 09:23:48;;;;;;;21.02;3.45;;;10.50;99.90;;;;;;5046325;28;20468;-60
2023/01/12 09:26:19;;;;;;;18.83;3.75;;;10.50;99.90;;;;;;5045741;28;20037;-61
2023/01/12 09:28:46;;;;;;;21.00;3.03;;;10.60;99.90;;;;;;5046972;28;20127;-60
2023/01/12 09:31:14;;;;;;;20.95;3.30;;;10.60;99.90;;;;;;5026486;28;20053;-60
2023/01/12 09:33:41;;;;;;;20.30;3.42;;;10.60;99.90;;;;;;5028259;28;20037;-60
2023/01/12 09:36:12;;;;;;;17.15;3.22;;;10.60;99.90;;;;;;5046145;28;20045;-60
2023/01/12 09:38:39;;;;;;;15.73;2.67;;;10.60;99.90;;;;;;5033767;28;20434;-60
2023/01/12 09:41:16;;;;;;;19.67;3.10;;;10.60;99.90;;;;;;5028789;28;20037;-61
2023/01/12 09:49:20;;;;;;;16.65;3.20;;;10.60;99.90;;;;;;5028765;28;20045;-60
2023/01/12 09:51:59;;;;;;;21.65;4.10;;;10.70;99.90;;;;;;5028172;28;20131;-61
2023/01/12 09:54:25;;;;;;;23.05;3.72;;;10.70;99.90;;;;;;5046002;28;20076;-61
2023/01/12 09:57:29;;;;;;;27.15;3.47;;;10.70;99.90;;;;;;5046431;28;20041;-61
2023/01/12 10:00:10;;;;;;;23.45;3.35;;;10.70;99.90;;;;;;5029606;28;20037;-60
2023/01/12 10:02:40;;;;;;;16.33;3.40;;;10.70;99.90;;;;;;5029772;28;20049;-61
2023/01/12 10:05:13;;;;;;;25.60;3.60;;;10.70;99.90;;;;;;5048556;28;20124;-61
2023/01/12 10:07:39;;;;;;;13.40;2.78;;;10.70;99.90;;;;;;5035017;28;20453;-61
2023/01/12 10:10:07;;;;;;;20.77;2.75;;;10.70;99.90;;;;;;5044541;28;20041;-61
2023/01/12 10:12:40;;;;;;;21.65;3.42;;;10.70;99.90;;;;;;5027874;28;20075;-61
2023/01/12 10:15:12;;;;;;;19.15;3.53;;;10.70;99.90;;;;;;5027783;28;20206;-60
2023/01/12 10:17:50;;;;;;;21.45;3.70;;;10.60;99.90;;;;;;5046159;28;20053;-61
2023/01/12 10:20:27;;;;;;;22.00;3.45;;;10.70;99.90;;;;;;5019535;28;20041;-61
2023/01/12 10:23:07;;;;;;;18.27;3.10;;;10.60;99.90;;;;;;5043147;28;20037;-60
2023/01/12 10:25:40;;;;;;;17.38;2.85;;;10.60;99.90;;;;;;5046200;28;20601;-61
2023/01/12 10:28:11;;;;;;;21.13;3.17;;;10.60;99.90;;;;;;5046177;28;20033;-61
2023/01/12 10:30:39;;;;;;;19.55;3.28;;;10.70;99.90;;;;;;5042256;28;20093;-60
2023/01/12 10:33:23;;;;;;;17.88;2.88;;;10.70;99.90;;;;;;5046077;28;20057;-61
2023/01/12 10:36:03;;;;;;;12.85;2.67;;;10.70;99.90;;;;;;5027754;28;20567;-61
2023/01/12 10:38:37;;;;;;;10.40;2.28;;;10.60;99.90;;;;;;5017942;28;21030;-60
2023/01/12 10:41:11;;;;;;;15.20;2.80;;;10.70;99.90;;;;;;5043995;28;20041;-60
2023/01/12 10:43:38;;;;;;;16.65;2.90;;;10.60;99.90;;;;;;5026919;28;20111;-61
2023/01/12 10:46:04;;;;;;;13.45;2.92;;;10.60;99.90;;;;;;5015857;28;20064;-61
2023/01/12 10:48:31;;;;;;;15.77;3.10;;;10.60;99.90;;;;;;5045619;28;20087;-61
2023/01/12 10:51:05;;;;;;;17.23;2.95;;;10.70;99.90;;;;;;5045297;28;20053;-60
2023/01/12 10:53:41;;;;;;;15.30;2.97;;;10.70;99.90;;;;;;5027642;28;20099;-61
2023/01/12 10:56:16;;;;;;;19.15;2.97;;;10.70;99.90;;;;;;5028255;28;20099;-61
2023/01/12 10:58:43;;;;;;;19.27;3.33;;;10.70;99.90;;;;;;5045997;28;20115;-60
2023/01/12 11:01:13;;;;;;;21.52;2.88;;;10.70;99.90;;;;;;5026553;28;20047;-60
2023/01/12 11:03:41;;;;;;;16.52;2.88;;;10.80;99.90;;;;;;5020332;28;20589;-61
2023/01/12 11:06:14;;;;;;;23.42;3.35;;;10.80;99.90;;;;;;5045184;28;20110;-60
2023/01/12 11:08:40;;;;;;;13.55;3.13;;;10.70;99.90;;;;;;5046875;28;20053;-61
2023/01/12 11:11:21;;;;;;;12.27;2.90;;;10.70;99.90;;;;;;5045646;28;20045;-60
2023/01/12 11:13:50;;;;;;;15.02;3.40;;;10.70;99.90;;;;;;5027330;28;20052;-61
2023/01/12 11:16:21;;;;;;;20.05;3.35;;;10.70;99.90;;;;;;5027683;28;20499;-61
2023/01/12 11:19:26;;;;;;;22.90;2.90;;;10.80;99.90;;;;;;5043918;28;20112;-61
2023/01/12 11:22:00;;;;;;;20.35;2.83;;;10.80;99.90;;;;;;5045138;28;20526;-61
2023/01/12 11:24:29;;;;;;;16.23;3.25;;;10.80;99.90;;;;;;5045119;28;20048;-61
2023/01/12 11:27:00;;;;;;;21.83;3.47;;;10.90;99.90;;;;;;5028880;28;20040;-61
2023/01/12 11:29:38;;;;;;;15.00;3.05;;;10.90;99.90;;;;;;5028977;28;20507;-62
2023/01/12 11:32:24;;;;;;;25.15;3.40;;;11.00;99.90;;;;;;5045467;28;20045;-61
2023/01/12 11:34:59;;;;;;;20.08;3.47;;;11.00;99.90;;;;;;5022891;28;20063;-61
2023/01/12 11:37:25;;;;;;;13.27;2.72;;;11.00;99.90;;;;;;5025972;28;20951;-61
2023/01/12 11:40:02;;;;;;;22.50;3.55;;;11.00;99.90;;;;;;5044153;28;20064;-61
2023/01/12 11:45:27;;;;;;;17.27;2.58;;;11.10;99.90;;;;;;5035317;28;20037;-60
2023/01/12 11:48:05;;;;;;;18.60;3.08;;;11.10;99.90;;;;;;5030212;28;20122;-60
2023/01/12 11:50:36;;;;;;;20.30;3.58;;;11.20;99.90;;;;;;5046780;28;20068;-61
2023/01/12 11:53:04;;;;;;;18.40;2.58;;;11.20;99.90;;;;;;5027107;28;20055;-61
2023/01/12 11:55:51;;;;;;;17.92;2.72;;;11.20;99.90;;;;;;5017356;28;20099;-61
2023/01/12 11:58:38;;;;;;;14.57;2.97;;;11.30;99.90;;;;;;5023471;28;20049;-61
2023/01/12 12:01:23;;;;;;;18.60;2.53;;;11.30;99.90;;;;;;5022033;28;20479;-61
2023/01/12 12:04:27;;;;;;;18.88;2.95;;;11.30;99.90;;;;;;5026689;28;20052;-60
2023/01/12 12:07:41;;;;;;;24.40;3.55;;;11.40;99.90;;;;;;5032631;28;20045;-61
2023/01/12 12:10:26;;;;;;;17.33;3.17;;;11.40;99.90;;;;;;5021403;28;20041;-61
2023/01/12 12:13:00;;;;;;;16.02;3.20;;;11.40;99.90;;;;;;5043949;28;20128;-61
2023/01/12 12:15:58;;;;;;;12.43;2.42;;;11.50;99.90;;;;;;5026002;28;20049;-61
2023/01/12 12:18:42;;;;;;;18.23;2.60;;;11.50;99.90;;;;;;5044930;28;20044;-61
2023/01/12 12:21:39;;;;;;;13.13;2.15;;;11.50;99.90;;;;;;5043137;28;20033;-60
2023/01/12 12:24:11;;;;;;;17.80;2.65;;;11.60;99.90;;;;;;5026670;28;20608;-61
2023/01/12 12:26:59;;;;;;;13.10;2.58;;;11.50;99.90;;;;;;5027005;28;20051;-60
2023/01/12 12:29:31;;;;;;;18.25;2.60;;;11.50;99.90;;;;;;5030471;28;20083;-61
2023/01/12 12:32:01;;;;;;;20.87;2.73;;;11.50;99.90;;;;;;5026284;28;20056;-61
2023/01/12 12:34:59;;;;;;;14.52;3.28;;;11.50;99.90;;;;;;5037053;28;20315;-61
2023/01/12 12:37:52;;;;;;;17.88;3.70;;;11.50;99.90;;;;;;5047472;28;20036;-61
2023/01/12 12:46:48;;;;;;;12.02;2.90;;;11.40;99.90;;;;;;5047445;28;20048;-61
2023/01/12 12:49:18;;;;;;;16.13;2.63;;;11.40;99.90;;;;;;5034729;28;20500;-60
2023/01/12 12:51:45;;;;;;;20.48;3.35;;;11.30;99.90;;;;;;5043339;28;20045;-61
2023/01/12 12:54:16;;;;;;;26.25;3.30;;;11.30;99.90;;;;;;5049066;28;20056;-61
2023/01/12 12:56:43;;;;;;;20.13;3.38;;;11.20;99.90;;;;;;5008238;28;20041;-61
2023/01/12 12:59:31;;;;;;;17.67;3.78;;;11.20;99.90;;;;;;5044485;28;20036;-62
2023/01/12 13:01:59;;;;;;;18.63;3.00;;;11.20;99.90;;;;;;5047854;28;20049;-61
2023/01/12 13:04:50;;;;;;;24.70;4.07;;;11.10;99.90;;;;;;5047631;28;20067;-61
2023/01/12 13:07:20;;;;;;;19.50;3.25;;;11.10;99.90;;;;;;5022662;28;20157;-61
2023/01/12 13:09:48;;;;;;;20.13;3.50;;;11.10;99.90;;;;;;5047836;28;20057;-60
2023/01/12 13:12:20;;;;;;;22.30;3.28;;;11.10;99.90;;;;;;5049454;28;20091;-61
2023/01/12 13:15:25;;;;;;;16.55;3.20;;;11.20;99.90;;;;;;5048036;28;20116;-61
2023/01/12 13:17:53;;;;;;;22.35;3.58;;;11.20;99.90;;;;;;5002484;28;20049;-61
2023/01/12 13:20:19;;;;;;;27.25;3.58;;;11.20;99.90;;;;;;5037064;28;20061;-61
2023/01/12 13:22:49;;;;;;;25.38;4.13;;;11.20;99.90;;;;;;5026802;28;20049;-61
2023/01/12 13:25:15;;;;;;;18.05;3.20;;;11.20;99.90;;;;;;5024496;28;20130;-61
2023/01/12 13:27:47;;;;;;;19.23;3.55;;;11.20;99.90;;;;;;5018531;28;20045;-61
2023/01/12 13:30:25;;;;;;;20.25;3.28;;;11.20;99.90;;;;;;5027537;28;20037;-61
2023/01/12 13:32:58;;;;;;;23.17;4.15;;;11.20;99.90;;;;;;5038999;28;20052;-60
2023/01/12 13:35:33;;;;;;;29.45;4.63;;;11.20;99.90;;;;;;5027935;28;20462;-61